createdAt,value
2023-11-07T00:01:29.915Z,92.47
2023-11-07T00:03:57.701Z,92.53
2023-11-07T00:06:25.065Z,92.54
2023-11-07T00:08:52.786Z,92.67
2023-11-07T00:11:20.575Z,92.83
2023-11-07T00:13:51.609Z,92.77
2023-11-07T00:16:20.006Z,92.75
2023-11-07T00:18:48.389Z,92.75
2023-11-07T00:21:15.724Z,92.72
2023-11-07T00:23:42.781Z,93.06
2023-11-07T00:26:09.789Z,92.91
2023-11-07T00:28:40.291Z,93.08
2023-11-07T00:31:07.777Z,92.93
2023-11-07T00:33:37.460Z,93.22
2023-11-07T00:36:04.932Z,93.07
2023-11-07T00:38:32.729Z,93.15
2023-11-07T00:41:00.266Z,93.61
2023-11-07T00:43:27.349Z,93.46
2023-11-07T00:45:54.819Z,93.27
2023-11-07T00:48:21.764Z,93.46
2023-11-07T00:50:48.821Z,93.21
2023-11-07T00:53:16.987Z,93.40
2023-11-07T00:55:44.354Z,93.55
2023-11-07T00:58:11.328Z,93.68
2023-11-07T01:00:38.466Z,93.74
2023-11-07T01:03:06.152Z,93.63
2023-11-07T01:05:33.939Z,93.67
2023-11-07T01:08:02.155Z,93.78
2023-11-07T01:10:28.860Z,93.84
2023-11-07T01:12:57.493Z,94.00
2023-11-07T01:15:24.414Z,94.02
2023-11-07T01:17:51.654Z,93.95
2023-11-07T01:20:18.893Z,94.13
2023-11-07T01:22:46.033Z,94.16
2023-11-07T01:25:12.985Z,94.27
2023-11-07T01:27:40.546Z,94.24
2023-11-07T01:30:08.501Z,94.30
2023-11-07T01:32:37.837Z,94.33
2023-11-07T01:35:05.242Z,94.41
2023-11-07T01:37:32.255Z,94.46
2023-11-07T01:39:59.030Z,94.58
2023-11-07T01:42:26.005Z,94.36
2023-11-07T01:44:53.933Z,94.59
2023-11-07T01:47:26.078Z,94.61
2023-11-07T01:49:53.488Z,94.37
2023-11-07T01:52:21.328Z,94.60
2023-11-07T01:54:52.563Z,94.73
2023-11-07T01:57:21.184Z,94.47
2023-11-07T01:59:49.588Z,94.89
2023-11-07T02:02:19.243Z,95.04
2023-11-07T02:04:48.341Z,94.89
2023-11-07T02:07:16.605Z,95.36
2023-11-07T02:09:44.164Z,95.24
2023-11-07T02:12:11.338Z,95.49
2023-11-07T02:14:41.111Z,95.52
2023-11-07T02:17:08.469Z,95.60
2023-11-07T02:19:35.629Z,95.35
2023-11-07T02:22:04.870Z,95.49
2023-11-07T02:24:31.977Z,95.41
2023-11-07T02:26:59.584Z,95.58
2023-11-07T02:29:26.476Z,95.68
2023-11-07T02:31:53.390Z,95.70
2023-11-07T02:34:20.805Z,95.51
2023-11-07T02:36:48.712Z,95.55
2023-11-07T02:39:16.450Z,95.70
2023-11-07T02:41:45.708Z,95.82
2023-11-07T02:44:13.563Z,95.80
2023-11-07T02:46:41.174Z,95.97
2023-11-07T02:49:08.802Z,95.88
2023-11-07T02:51:36.199Z,95.85
2023-11-07T02:54:04.236Z,95.97
2023-11-07T02:56:31.414Z,96.01
2023-11-07T02:59:00.144Z,96.46
2023-11-07T03:01:27.792Z,96.52
2023-11-07T03:03:57.477Z,96.60
2023-11-07T03:06:24.486Z,96.47
2023-11-07T03:08:51.812Z,96.53
2023-11-07T03:11:18.989Z,96.24
2023-11-07T03:13:46.648Z,96.11
2023-11-07T03:16:13.598Z,95.70
2023-11-07T03:18:40.791Z,95.70
2023-11-07T03:21:08.794Z,95.38
2023-11-07T03:23:35.818Z,95.25
2023-11-07T03:26:03.202Z,94.72
2023-11-07T03:28:30.032Z,94.75
2023-11-07T03:30:57.638Z,94.69
2023-11-07T03:33:25.301Z,94.82
2023-11-07T03:35:52.564Z,94.60
2023-11-07T03:38:19.333Z,94.52
2023-11-07T03:40:47.145Z,94.69
2023-11-07T03:43:14.332Z,94.36
2023-11-07T03:45:41.361Z,94.47
2023-11-07T03:48:08.278Z,94.52
2023-11-07T03:50:36.256Z,94.81
2023-11-07T03:53:03.268Z,94.75
2023-11-07T03:55:30.113Z,94.74
2023-11-07T03:57:58.200Z,94.75
2023-11-07T04:00:25.006Z,94.60
2023-11-07T04:02:52.466Z,94.59
2023-11-07T04:05:20.680Z,94.46
2023-11-07T04:07:47.499Z,94.37
2023-11-07T04:10:14.936Z,94.03
2023-11-07T04:12:42.093Z,94.28
2023-11-07T04:15:10.874Z,94.24
2023-11-07T04:17:38.242Z,94.05
2023-11-07T04:20:05.951Z,93.83
2023-11-07T04:22:33.026Z,93.90
2023-11-07T04:25:01.242Z,93.53
2023-11-07T04:27:28.592Z,93.60
2023-11-07T04:29:55.668Z,93.51
2023-11-07T04:32:23.056Z,93.26
2023-11-07T04:34:50.324Z,93.50
2023-11-07T04:37:18.614Z,93.18
2023-11-07T04:39:46.128Z,92.97
2023-11-07T04:42:12.921Z,92.52
2023-11-07T04:44:40.985Z,92.29
2023-11-07T04:47:07.896Z,92.19
2023-11-07T04:49:35.403Z,91.95
2023-11-07T04:52:03.719Z,92.05
2023-11-07T04:54:31.205Z,92.09
2023-11-07T04:56:59.212Z,91.98
2023-11-07T04:59:26.438Z,92.20
2023-11-07T05:01:56.324Z,92.14
2023-11-07T05:04:23.588Z,92.09
2023-11-07T05:06:50.928Z,92.44
2023-11-07T05:09:18.824Z,92.21
2023-11-07T05:11:46.491Z,92.28
2023-11-07T05:14:13.632Z,92.40
2023-11-07T05:16:42.786Z,92.23
2023-11-07T05:19:10.184Z,92.29
2023-11-07T05:21:38.180Z,92.46
2023-11-07T05:24:05.823Z,92.29
2023-11-07T05:26:33.062Z,92.15
2023-11-07T05:29:01.512Z,92.10
2023-11-07T05:31:28.748Z,91.96
2023-11-07T05:33:56.424Z,91.91
2023-11-07T05:36:23.308Z,91.61
2023-11-07T05:38:51.021Z,91.68
2023-11-07T05:41:19.609Z,91.86
2023-11-07T05:43:47.206Z,91.86
2023-11-07T05:46:14.048Z,92.11
2023-11-07T05:48:41.430Z,92.14
2023-11-07T05:51:08.646Z,92.22
2023-11-07T05:53:36.220Z,92.26
2023-11-07T05:56:03.294Z,92.24
2023-11-07T05:58:30.798Z,92.07
2023-11-07T06:00:58.789Z,92.25
2023-11-07T06:03:26.457Z,92.23
2023-11-07T06:05:54.321Z,92.02
2023-11-07T06:08:21.473Z,92.11
2023-11-07T06:10:49.042Z,92.28
2023-11-07T06:13:16.565Z,91.97
2023-11-07T06:15:43.735Z,91.88
2023-11-07T06:18:11.255Z,91.60
2023-11-07T06:20:38.917Z,91.39
2023-11-07T06:23:06.747Z,91.20
2023-11-07T06:25:35.152Z,90.78
2023-11-07T06:28:02.270Z,90.60
2023-11-07T06:30:31.433Z,90.70
2023-11-07T06:32:58.934Z,90.95
2023-11-07T06:35:27.551Z,90.77
2023-11-07T06:37:55.046Z,90.71
2023-11-07T06:40:22.937Z,90.44
2023-11-07T06:42:49.886Z,90.39
2023-11-07T06:45:17.663Z,90.52
2023-11-07T06:47:46.035Z,90.61
2023-11-07T06:50:15.271Z,90.65
2023-11-07T06:52:48.290Z,90.69
2023-11-07T06:55:16.821Z,90.65
2023-11-07T06:57:43.833Z,90.70
2023-11-07T07:00:11.774Z,90.67
2023-11-07T07:02:41.976Z,90.35
2023-11-07T07:05:14.886Z,90.79
2023-11-07T07:07:42.942Z,90.77
2023-11-07T07:10:11.709Z,91.02
2023-11-07T07:12:39.330Z,90.91
2023-11-07T07:15:07.515Z,91.10
2023-11-07T07:17:34.497Z,91.12
2023-11-07T07:20:01.827Z,91.47
2023-11-07T07:22:29.047Z,91.55
2023-11-07T07:24:56.656Z,91.65
2023-11-07T07:27:28.122Z,91.63
2023-11-07T07:29:55.413Z,91.59
2023-11-07T07:32:23.285Z,91.65
2023-11-07T07:34:52.835Z,91.47
2023-11-07T07:37:22.160Z,91.32
2023-11-07T07:39:51.473Z,91.18
2023-11-07T07:42:18.708Z,90.94
2023-11-07T07:44:46.794Z,90.76
2023-11-07T07:47:16.952Z,90.28
2023-11-07T07:49:44.327Z,90.01
2023-11-07T07:52:11.913Z,89.71
2023-11-07T07:57:10.030Z,89.01
2023-11-07T07:59:42.800Z,88.64
2023-11-07T08:02:10.278Z,88.57
2023-11-07T08:04:37.716Z,88.43
2023-11-07T08:07:06.384Z,87.87
2023-11-07T08:09:33.236Z,87.76
2023-11-07T08:12:01.654Z,87.52
2023-11-07T08:14:30.868Z,87.20
2023-11-07T08:16:57.928Z,87.04
2023-11-07T08:19:25.829Z,85.37
2023-11-07T08:21:52.989Z,85.44
2023-11-07T08:24:20.377Z,85.04
2023-11-07T08:26:48.393Z,84.73
2023-11-07T08:29:17.104Z,84.92
2023-11-07T08:31:44.489Z,84.86
2023-11-07T08:34:13.110Z,84.64
2023-11-07T08:36:51.037Z,84.04
2023-11-07T08:39:28.325Z,83.28
2023-11-07T08:41:56.324Z,83.95
2023-11-07T08:44:23.610Z,84.07
2023-11-07T08:46:50.774Z,83.75
2023-11-07T08:49:18.113Z,83.16
2023-11-07T08:51:51.424Z,83.69
2023-11-07T08:54:22.483Z,84.00
2023-11-07T08:56:50.872Z,84.27
2023-11-07T08:59:19.438Z,82.89
2023-11-07T09:01:48.353Z,82.70
2023-11-07T09:04:16.063Z,82.31
2023-11-07T09:06:42.932Z,82.39
2023-11-07T09:09:15.503Z,82.47
2023-11-07T09:11:43.218Z,82.12
2023-11-07T09:14:10.609Z,82.44
2023-11-07T09:16:38.802Z,82.89
2023-11-07T09:19:06.566Z,83.28
2023-11-07T09:21:33.640Z,82.90
2023-11-07T09:24:00.989Z,83.18
2023-11-07T09:26:28.047Z,83.62
2023-11-07T09:28:55.486Z,83.28
2023-11-07T09:31:22.537Z,83.83
2023-11-07T09:33:49.677Z,84.21
2023-11-07T09:36:17.316Z,84.16
2023-11-07T09:38:52.022Z,83.59
2023-11-07T09:41:20.431Z,82.98
2023-11-07T09:43:49.234Z,83.08
2023-11-07T09:46:18.224Z,82.10
2023-11-07T09:48:46.155Z,82.05
2023-11-07T09:51:16.040Z,81.86
2023-11-07T09:53:45.992Z,81.33
2023-11-07T09:56:14.780Z,81.89
2023-11-07T09:58:48.960Z,81.43
2023-11-07T10:01:16.223Z,80.19
2023-11-07T10:03:48.516Z,79.48
2023-11-07T10:06:16.237Z,78.73
2023-11-07T10:08:44.265Z,79.35
2023-11-07T10:11:13.832Z,78.63
2023-11-07T10:14:00.134Z,79.15
2023-11-07T10:16:42.621Z,79.04
2023-11-07T10:19:15.167Z,77.96
2023-11-07T10:21:42.383Z,76.57
2023-11-07T10:24:10.759Z,75.89
2023-11-07T10:27:00.774Z,76.23
2023-11-07T10:29:28.832Z,76.46
2023-11-07T10:32:11.097Z,75.21
2023-11-07T10:34:40.716Z,74.93
2023-11-07T10:37:08.154Z,73.99
2023-11-07T10:39:36.752Z,73.28
2023-11-07T10:42:35.840Z,73.46
2023-11-07T10:45:11.465Z,74.03
2023-11-07T10:47:40.060Z,73.44
2023-11-07T10:50:09.954Z,72.09
2023-11-07T10:52:40.406Z,72.89
2023-11-07T10:55:08.441Z,70.34
2023-11-07T10:57:39.369Z,71.76
2023-11-07T11:00:21.805Z,69.82
2023-11-07T11:02:55.396Z,69.24
2023-11-07T11:05:25.458Z,69.88
2023-11-07T11:07:54.805Z,68.80
2023-11-07T11:10:28.825Z,67.85
2023-11-07T11:12:57.427Z,68.13
2023-11-07T11:15:25.736Z,66.97
2023-11-07T11:18:07.835Z,66.95
2023-11-07T11:20:49.485Z,65.96
2023-11-07T11:23:46.368Z,66.58
2023-11-07T11:26:38.958Z,66.79
2023-11-07T11:29:26.347Z,66.32
2023-11-07T11:31:55.020Z,66.15
2023-11-07T11:34:23.387Z,66.33
2023-11-07T11:36:55.152Z,66.95
2023-11-07T11:39:28.146Z,67.59
2023-11-07T11:41:56.675Z,67.99
2023-11-07T11:44:25.797Z,67.96
2023-11-07T11:46:54.094Z,68.35
2023-11-07T11:49:23.519Z,68.49
2023-11-07T11:51:52.853Z,68.49
2023-11-07T11:54:26.080Z,67.44
2023-11-07T11:56:54.819Z,67.71
2023-11-07T11:59:26.354Z,68.09
2023-11-07T12:02:00.012Z,68.26
2023-11-07T12:04:31.180Z,67.62
2023-11-07T12:07:08.183Z,67.47
2023-11-07T12:09:35.546Z,66.70
2023-11-07T12:12:03.370Z,67.13
2023-11-07T12:14:31.531Z,66.86
2023-11-07T12:17:00.305Z,66.32
2023-11-07T12:19:30.085Z,66.36
2023-11-07T12:21:58.886Z,66.10
2023-11-07T12:24:26.625Z,66.40
2023-11-07T12:26:53.592Z,65.81
2023-11-07T12:29:35.365Z,66.38
2023-11-07T12:32:04.603Z,66.96
2023-11-07T12:34:34.543Z,67.91
2023-11-07T12:37:14.216Z,67.91
2023-11-07T12:39:42.764Z,67.19
2023-11-07T12:42:10.388Z,67.72
2023-11-07T12:44:42.571Z,67.42
2023-11-07T12:47:10.724Z,68.17
2023-11-07T12:49:39.834Z,67.16
2023-11-07T12:52:13.379Z,67.25
2023-11-07T12:54:40.655Z,66.75
2023-11-07T12:57:08.574Z,66.70
2023-11-07T12:59:36.373Z,66.44
2023-11-07T13:02:04.691Z,66.08
2023-11-07T13:04:32.019Z,66.41
2023-11-07T13:07:01.298Z,67.14
2023-11-07T13:09:32.285Z,66.91
2023-11-07T13:12:11.132Z,67.09
2023-11-07T13:14:39.665Z,67.50
2023-11-07T13:17:06.924Z,66.90
2023-11-07T13:19:36.141Z,66.90
2023-11-07T13:22:04.897Z,65.62
2023-11-07T13:24:32.593Z,65.27
2023-11-07T13:27:00.503Z,65.29
2023-11-07T13:29:28.533Z,64.75
2023-11-07T13:31:55.990Z,64.95
2023-11-07T13:34:22.847Z,65.07
2023-11-07T13:36:50.112Z,65.61
2023-11-07T13:39:24.342Z,64.77
2023-11-07T13:41:53.196Z,64.90
2023-11-07T13:44:20.028Z,64.74
2023-11-07T13:46:48.117Z,64.60
2023-11-07T13:49:15.204Z,64.31
2023-11-07T13:51:43.709Z,64.89
2023-11-07T13:54:10.790Z,64.90
2023-11-07T13:56:38.606Z,64.69
2023-11-07T13:59:06.426Z,65.17
2023-11-07T14:01:37.768Z,65.22
2023-11-07T14:04:10.600Z,64.65
2023-11-07T14:06:37.723Z,64.85
2023-11-07T14:09:06.013Z,64.73
2023-11-07T14:11:34.572Z,64.77
2023-11-07T14:14:01.847Z,64.16
2023-11-07T14:16:29.092Z,63.83
2023-11-07T14:18:56.172Z,63.96
2023-11-07T14:21:23.244Z,64.35
2023-11-07T14:23:50.326Z,64.59
2023-11-07T14:26:17.819Z,64.90
2023-11-07T14:31:15.191Z,65.40
2023-11-07T14:33:43.462Z,65.27
2023-11-07T14:36:12.289Z,66.00
2023-11-07T14:38:40.213Z,66.06
2023-11-07T14:41:08.772Z,66.22
2023-11-07T14:43:36.486Z,67.12
2023-11-07T14:46:04.550Z,67.67
2023-11-07T14:48:33.245Z,67.55
2023-11-07T14:51:01.037Z,67.63
2023-11-07T14:53:28.299Z,67.46
2023-11-07T14:55:56.676Z,68.01
2023-11-07T14:58:26.031Z,67.49
2023-11-07T15:00:56.445Z,67.39
2023-11-07T15:03:24.162Z,66.88
2023-11-07T15:05:52.967Z,67.10
2023-11-07T15:08:20.978Z,66.30
2023-11-07T15:10:48.160Z,66.31
2023-11-07T15:13:14.975Z,66.46
2023-11-07T15:15:42.805Z,66.72
2023-11-07T15:18:12.785Z,65.93
2023-11-07T15:20:41.661Z,65.47
2023-11-07T15:23:10.365Z,65.97
2023-11-07T15:25:39.114Z,65.87
2023-11-07T15:28:06.056Z,66.60
2023-11-07T15:30:34.045Z,67.08
2023-11-07T15:33:02.094Z,67.40
2023-11-07T15:35:36.894Z,67.44
2023-11-07T15:38:08.902Z,67.82
2023-11-07T15:40:37.058Z,68.29
2023-11-07T15:43:06.016Z,69.17
2023-11-07T15:45:34.356Z,68.99
2023-11-07T15:48:02.716Z,68.63
2023-11-07T15:50:30.506Z,67.97
2023-11-07T15:53:07.662Z,68.24
2023-11-07T15:55:41.109Z,67.47
2023-11-07T15:58:09.742Z,68.11
2023-11-07T16:00:36.805Z,67.85
2023-11-07T16:03:05.606Z,67.77
2023-11-07T16:05:36.791Z,67.62
2023-11-07T16:08:08.235Z,67.85
2023-11-07T16:10:36.148Z,68.45
2023-11-07T16:13:03.885Z,68.98
2023-11-07T16:15:32.033Z,69.34
2023-11-07T16:17:59.617Z,69.93
2023-11-07T16:20:27.816Z,69.67
2023-11-07T16:22:54.714Z,70.00
2023-11-07T16:25:21.530Z,70.23
2023-11-07T16:27:48.576Z,70.78
2023-11-07T16:30:17.479Z,70.83
2023-11-07T16:32:45.334Z,70.84
2023-11-07T16:35:14.098Z,70.61
2023-11-07T16:37:41.630Z,70.86
2023-11-07T16:40:12.475Z,71.28
2023-11-07T16:42:41.745Z,71.28
2023-11-07T16:45:13.676Z,71.40
2023-11-07T16:47:43.178Z,71.86
2023-11-07T16:50:12.233Z,71.91
2023-11-07T16:52:41.055Z,71.38
2023-11-07T16:55:18.433Z,71.64
2023-11-07T16:57:46.429Z,72.35
2023-11-07T17:00:15.876Z,72.60
2023-11-07T17:02:43.631Z,72.76
2023-11-07T17:05:13.775Z,72.59
2023-11-07T17:07:40.708Z,72.57
2023-11-07T17:10:09.877Z,72.80
2023-11-07T17:12:37.304Z,72.49
2023-11-07T17:15:08.209Z,72.52
2023-11-07T17:17:35.683Z,73.10
2023-11-07T17:20:06.550Z,72.95
2023-11-07T17:22:33.653Z,73.28
2023-11-07T17:25:00.834Z,73.66
2023-11-07T17:27:27.635Z,73.44
2023-11-07T17:29:54.641Z,73.56
2023-11-07T17:32:21.725Z,73.69
2023-11-07T17:34:48.781Z,73.62
2023-11-07T17:37:15.663Z,73.76
2023-11-07T17:39:42.993Z,73.95
2023-11-07T17:42:11.060Z,73.79
2023-11-07T17:44:39.267Z,74.25
2023-11-07T17:47:07.466Z,74.03
2023-11-07T17:49:34.888Z,74.28
2023-11-07T17:52:02.160Z,74.68
2023-11-07T17:54:29.956Z,75.00
2023-11-07T17:56:57.257Z,75.20
2023-11-07T17:59:24.568Z,75.24
2023-11-07T18:01:51.796Z,75.47
2023-11-07T18:04:20.258Z,75.33
2023-11-07T18:06:47.582Z,75.65
2023-11-07T18:09:16.329Z,75.89
2023-11-07T18:11:46.201Z,75.82
2023-11-07T18:14:15.401Z,76.09
2023-11-07T18:16:45.529Z,75.91
2023-11-07T18:19:14.421Z,76.09
2023-11-07T18:21:44.033Z,76.33
2023-11-07T18:24:12.649Z,76.46
2023-11-07T18:26:45.876Z,76.83
2023-11-07T18:29:14.152Z,76.86
2023-11-07T18:31:41.656Z,77.17
2023-11-07T18:34:16.829Z,77.44
2023-11-07T18:37:03.531Z,77.79
2023-11-07T18:39:32.347Z,78.02
2023-11-07T18:42:00.110Z,77.93
2023-11-07T18:44:37.039Z,78.22
2023-11-07T18:47:04.948Z,78.30
2023-11-07T18:49:35.246Z,78.73
2023-11-07T18:52:03.755Z,78.69
2023-11-07T18:54:31.865Z,79.02
2023-11-07T18:57:00.144Z,79.05
2023-11-07T18:59:34.430Z,79.17
2023-11-07T19:02:08.209Z,79.39
2023-11-07T19:04:37.811Z,79.77
2023-11-07T19:07:06.890Z,79.91
2023-11-07T19:09:34.607Z,80.16
2023-11-07T19:12:02.924Z,80.14
2023-11-07T19:14:31.005Z,80.40
2023-11-07T19:16:58.441Z,80.49
2023-11-07T19:19:26.169Z,80.87
2023-11-07T19:21:53.079Z,81.21
2023-11-07T19:24:22.022Z,81.58
2023-11-07T19:26:50.624Z,81.66
2023-11-07T19:29:19.456Z,81.73
2023-11-07T19:31:51.379Z,81.38
2023-11-07T19:34:21.424Z,81.18
2023-11-07T19:36:51.163Z,81.22
2023-11-07T19:39:22.182Z,81.16
2023-11-07T19:41:49.862Z,81.37
2023-11-07T19:44:17.102Z,80.93
2023-11-07T19:46:44.718Z,81.22
2023-11-07T19:49:11.817Z,81.06
2023-11-07T19:51:41.849Z,81.35
2023-11-07T19:54:11.969Z,81.08
2023-11-07T19:56:41.919Z,80.98
2023-11-07T19:59:11.612Z,80.93
2023-11-07T20:01:39.766Z,81.17
2023-11-07T20:04:07.229Z,81.24
2023-11-07T20:06:34.968Z,81.33
2023-11-07T20:09:02.237Z,81.41
2023-11-07T20:11:30.412Z,81.56
2023-11-07T20:13:57.510Z,81.65
2023-11-07T20:16:24.758Z,81.48
2023-11-07T20:18:53.884Z,81.60
2023-11-07T20:21:21.039Z,81.70
2023-11-07T20:23:48.714Z,81.78
2023-11-07T20:26:19.679Z,81.82
2023-11-07T20:28:50.814Z,82.08
2023-11-07T20:31:18.785Z,81.98
2023-11-07T20:36:17.097Z,82.00
2023-11-07T20:38:45.373Z,82.22
2023-11-07T20:41:17.106Z,82.18
2023-11-07T20:43:44.353Z,82.04
2023-11-07T20:48:52.769Z,82.41
2023-11-07T20:51:20.246Z,82.69
2023-11-07T20:53:47.272Z,82.80
2023-11-07T20:56:14.003Z,82.96
2023-11-07T20:58:41.050Z,82.96
2023-11-07T21:01:09.938Z,82.66
2023-11-07T21:03:36.850Z,82.71
2023-11-07T21:06:04.242Z,82.66
2023-11-07T21:08:31.337Z,82.69
2023-11-07T21:10:58.433Z,82.67
2023-11-07T21:13:26.705Z,82.53
2023-11-07T21:15:53.912Z,82.44
2023-11-07T21:18:22.330Z,82.43
2023-11-07T21:20:49.783Z,82.80
2023-11-07T21:23:17.785Z,82.75
2023-11-07T21:25:44.825Z,82.48
2023-11-07T21:28:12.148Z,82.57
2023-11-07T21:30:39.463Z,82.54
2023-11-07T21:33:07.249Z,82.35
2023-11-07T21:35:34.831Z,82.33
2023-11-07T21:38:01.756Z,82.79
2023-11-07T21:40:30.100Z,82.88
2023-11-07T21:42:59.600Z,82.87
2023-11-07T21:45:26.876Z,82.86
2023-11-07T21:47:53.691Z,82.93
2023-11-07T21:50:21.608Z,82.24
2023-11-07T21:52:49.215Z,82.10
2023-11-07T21:55:16.828Z,82.06
2023-11-07T21:57:43.659Z,82.03
2023-11-07T22:00:15.846Z,81.57
2023-11-07T22:02:44.778Z,81.67
2023-11-07T22:05:16.221Z,81.82
2023-11-07T22:07:45.810Z,81.29
2023-11-07T22:10:15.261Z,81.37
2023-11-07T22:12:46.840Z,81.24
2023-11-07T22:15:14.521Z,80.85
2023-11-07T22:17:43.624Z,80.93
2023-11-07T22:20:14.535Z,80.92
2023-11-07T22:22:44.092Z,80.61
2023-11-07T22:25:11.613Z,80.42
2023-11-07T22:27:40.538Z,80.12
2023-11-07T22:30:10.056Z,80.33
2023-11-07T22:32:38.646Z,80.35
2023-11-07T22:35:06.541Z,80.18
2023-11-07T22:37:33.719Z,80.14
2023-11-07T22:40:01.387Z,80.12
2023-11-07T22:42:29.758Z,80.18
2023-11-07T22:44:57.141Z,79.99
2023-11-07T22:47:23.961Z,79.97
2023-11-07T22:49:51.014Z,79.99
2023-11-07T22:52:18.123Z,79.82
2023-11-07T22:54:45.142Z,79.87
2023-11-07T22:57:12.128Z,79.84
2023-11-07T22:59:39.555Z,79.57
2023-11-07T23:02:06.765Z,79.35
2023-11-07T23:04:34.205Z,79.33
2023-11-07T23:07:02.426Z,79.68
2023-11-07T23:09:30.387Z,79.51
2023-11-07T23:11:58.352Z,79.70
2023-11-07T23:14:25.715Z,79.66
2023-11-07T23:16:53.978Z,79.84
2023-11-07T23:19:20.989Z,79.62
2023-11-07T23:21:48.003Z,79.98
2023-11-07T23:24:15.260Z,79.58
2023-11-07T23:26:48.081Z,80.06
2023-11-07T23:29:18.196Z,79.67
2023-11-07T23:31:45.237Z,79.60
2023-11-07T23:34:14.546Z,79.87
2023-11-07T23:36:42.492Z,79.59
2023-11-07T23:39:12.024Z,79.49
2023-11-07T23:41:39.321Z,79.94
2023-11-07T23:44:06.202Z,80.03
2023-11-07T23:46:35.460Z,79.76
2023-11-07T23:49:03.634Z,79.95
2023-11-07T23:51:31.692Z,80.02
2023-11-07T23:53:58.971Z,80.29
2023-11-07T23:56:26.016Z,79.68
2023-11-07T23:58:53.433Z,79.54
